Silverbow, Montana
Current Conditions -  °F | °C
As of 8:08 AM on Sunday 21 Dec 2014 (Local Time) from KBTM Reporting Station
Light Rain Light Rain  
Wind Chill: 30°   Ceiling: 2300
Heat Index: 36°   Visibility: 8mi
Dew Point: 32°   Wind: 7mph
Humidity: 86%   Direction: 250°WSW
Pressure: 29.54"   Gusts: NA
Location:  45.9803°N, 112.771°W
Report Text: KBTM 211508Z AUTO 25006KT 8SM -RA OVC023 02/00 A2954 RMK AO2 P0000 T00220000
Loading
Personal Weather Stations






























Interactive Weather Map New forecast layout! Learn more

10-Day Weather Forecast

Advertisements
Track Severe Weather on mobile